createdAt,value
2019-05-12T00:01:35.494Z,4.92
2019-05-12T00:04:08.090Z,4.57
2019-05-12T00:06:38.732Z,5.17
2019-05-12T00:09:14.012Z,7.30
2019-05-12T00:11:48.290Z,5.67
2019-05-12T00:14:23.565Z,12.47
2019-05-12T00:16:54.805Z,6.07
2019-05-12T00:19:24.106Z,7.00
2019-05-12T00:21:55.348Z,6.73
2019-05-12T00:24:27.825Z,7.55
2019-05-12T00:27:00.805Z,6.23
2019-05-12T00:29:30.180Z,7.47
2019-05-12T00:32:05.001Z,7.80
2019-05-12T00:34:35.300Z,7.50
2019-05-12T00:37:08.311Z,7.00
2019-05-12T00:39:42.029Z,8.30
2019-05-12T00:42:13.868Z,8.63
2019-05-12T00:44:43.286Z,9.67
2019-05-12T00:47:12.728Z,8.87
2019-05-12T00:49:42.147Z,9.90
2019-05-12T00:52:11.544Z,10.00
2019-05-12T00:54:40.977Z,10.43
2019-05-12T00:57:11.102Z,10.27
2019-05-12T00:59:44.770Z,8.83
2019-05-12T01:02:18.210Z,9.90
2019-05-12T01:04:49.287Z,8.40
2019-05-12T01:07:19.580Z,8.20
2019-05-12T01:09:49.340Z,9.30
2019-05-12T01:12:19.463Z,9.20
2019-05-12T01:14:54.156Z,8.17
2019-05-12T01:17:28.089Z,8.30
2019-05-12T01:20:00.615Z,8.20
2019-05-12T01:22:31.034Z,7.70
2019-05-12T01:25:01.311Z,6.60
2019-05-12T01:27:34.075Z,7.20
2019-05-12T01:30:05.344Z,7.63
2019-05-12T01:32:40.161Z,6.53
2019-05-12T01:35:12.769Z,7.00
2019-05-12T01:37:42.994Z,7.87
2019-05-12T01:40:12.597Z,6.97
2019-05-12T01:42:41.977Z,5.97
2019-05-12T01:45:12.033Z,6.10
2019-05-12T01:47:43.304Z,6.20
2019-05-12T01:50:13.048Z,5.87
2019-05-12T01:52:42.429Z,5.90
2019-05-12T01:55:18.566Z,5.77
2019-05-12T01:57:48.617Z,5.17
2019-05-12T02:00:22.457Z,5.37
2019-05-12T02:02:59.551Z,6.20
2019-05-12T02:05:29.012Z,5.90
2019-05-12T02:08:02.003Z,4.80
2019-05-12T02:10:32.879Z,4.53
2019-05-12T02:13:02.867Z,5.67
2019-05-12T02:15:32.502Z,6.00
2019-05-12T02:18:03.547Z,6.53
2019-05-12T02:20:38.902Z,5.55
2019-05-12T02:23:09.209Z,5.73
2019-05-12T02:25:39.145Z,5.40
2019-05-12T02:28:12.332Z,5.90
2019-05-12T02:30:42.887Z,5.07
2019-05-12T02:33:15.666Z,5.63
2019-05-12T02:35:44.476Z,4.77
2019-05-12T02:38:20.424Z,4.80
2019-05-12T02:40:51.555Z,4.10
2019-05-12T02:43:24.434Z,4.00
2019-05-12T02:45:56.480Z,4.75
2019-05-12T02:48:30.945Z,4.30
2019-05-12T02:51:05.205Z,3.70
2019-05-12T02:53:35.168Z,4.80
2019-05-12T02:56:05.346Z,4.23
2019-05-12T02:58:38.212Z,4.00
2019-05-12T03:01:10.969Z,4.13
2019-05-12T03:03:44.034Z,3.63
2019-05-12T03:06:15.122Z,4.17
2019-05-12T03:08:45.140Z,4.40
2019-05-12T03:11:15.327Z,4.65
2019-05-12T03:13:45.003Z,4.22
2019-05-12T03:16:21.437Z,5.08
2019-05-12T03:18:54.991Z,4.83
2019-05-12T03:21:24.486Z,6.07
2019-05-12T03:23:55.382Z,5.20
2019-05-12T03:26:25.925Z,5.72
2019-05-12T03:28:56.756Z,4.57
2019-05-12T03:31:31.629Z,7.72
2019-05-12T03:34:00.204Z,8.23
2019-05-12T03:36:34.707Z,4.92
2019-05-12T03:39:04.224Z,8.97
2019-05-12T03:41:35.546Z,6.37
2019-05-12T03:44:07.325Z,4.80
2019-05-12T03:46:45.353Z,7.72
2019-05-12T03:49:15.497Z,5.60
2019-05-12T03:51:54.167Z,5.33
2019-05-12T03:54:24.392Z,5.58
2019-05-12T03:56:55.719Z,4.67
2019-05-12T03:59:25.671Z,5.63
2019-05-12T04:01:55.701Z,5.27
2019-05-12T04:04:29.312Z,5.30
2019-05-12T04:07:05.496Z,5.07
2019-05-12T04:09:35.042Z,4.80
2019-05-12T04:12:05.404Z,6.10
2019-05-12T04:14:34.920Z,5.30
2019-05-12T04:17:05.012Z,7.70
2019-05-12T04:19:36.525Z,5.20
2019-05-12T04:22:05.905Z,5.60
2019-05-12T04:24:35.968Z,7.42
2019-05-12T04:27:05.762Z,5.07
2019-05-12T04:29:35.160Z,7.15
2019-05-12T04:32:05.225Z,5.70
2019-05-12T04:34:36.335Z,6.37
2019-05-12T04:37:14.754Z,5.10
2019-05-12T04:39:45.717Z,10.28
2019-05-12T04:42:16.274Z,5.37
2019-05-12T04:44:45.675Z,4.63
2019-05-12T04:47:16.411Z,4.60
2019-05-12T04:49:45.788Z,9.03
2019-05-12T04:52:19.972Z,5.50
2019-05-12T04:54:57.165Z,5.20
2019-05-12T04:57:28.075Z,5.40
2019-05-12T04:59:57.385Z,5.70
2019-05-12T05:02:26.809Z,5.10
2019-05-12T05:04:56.343Z,4.90
2019-05-12T05:07:26.005Z,6.03
2019-05-12T05:09:55.478Z,5.80
2019-05-12T05:12:24.854Z,5.47
2019-05-12T05:15:01.824Z,5.57
2019-05-12T05:17:31.308Z,6.07
2019-05-12T05:20:00.703Z,6.00
2019-05-12T05:22:33.324Z,7.20
2019-05-12T05:25:04.253Z,7.17
2019-05-12T05:27:34.157Z,6.60
2019-05-12T05:30:04.190Z,6.80
2019-05-12T05:32:34.104Z,7.30
2019-05-12T05:35:07.371Z,5.47
2019-05-12T05:37:39.575Z,6.20
2019-05-12T05:40:08.675Z,6.90
2019-05-12T05:42:44.190Z,6.43
2019-05-12T05:45:19.604Z,7.05
2019-05-12T05:47:45.053Z,6.70
2019-05-12T05:50:24.956Z,7.10
2019-05-12T05:52:54.248Z,9.20
2019-05-12T05:55:24.795Z,6.50
2019-05-12T05:57:54.212Z,5.60
2019-05-12T06:00:26.196Z,5.87
2019-05-12T06:02:55.494Z,6.23
2019-05-12T06:05:30.774Z,9.58
2019-05-12T06:07:57.984Z,7.33
2019-05-12T06:10:35.340Z,7.13
2019-05-12T06:12:58.436Z,8.37
2019-05-12T06:15:29.777Z,7.20
2019-05-12T06:17:59.269Z,4.10
2019-05-12T06:20:28.755Z,5.00
2019-05-12T06:22:58.145Z,5.00
2019-05-12T06:25:44.562Z,5.62
2019-05-12T06:28:01.460Z,4.67
2019-05-12T06:30:30.247Z,4.33
2019-05-12T06:32:59.650Z,4.90
2019-05-12T06:35:30.987Z,5.28
2019-05-12T06:38:01.915Z,4.75
2019-05-12T06:40:40.372Z,5.43
2019-05-12T06:43:04.901Z,6.00
2019-05-12T06:45:41.868Z,4.97
2019-05-12T06:48:07.044Z,5.30
2019-05-12T06:50:38.871Z,6.23
2019-05-12T06:53:08.232Z,5.90
2019-05-12T06:55:39.419Z,5.70
2019-05-12T06:58:08.892Z,6.40
2019-05-12T07:00:39.909Z,6.00
2019-05-12T07:03:09.685Z,6.20
2019-05-12T07:05:42.477Z,5.90
2019-05-12T07:08:10.973Z,6.00
2019-05-12T07:10:44.284Z,5.10
2019-05-12T07:13:14.820Z,6.00
2019-05-12T07:15:44.481Z,5.53
2019-05-12T07:18:17.820Z,5.80
2019-05-12T07:20:47.464Z,5.70
2019-05-12T07:23:19.765Z,6.05
2019-05-12T07:25:48.649Z,7.20
2019-05-12T07:28:19.314Z,5.95
2019-05-12T07:30:49.484Z,6.53
2019-05-12T07:33:19.532Z,5.43
2019-05-12T07:36:00.986Z,6.10
2019-05-12T07:38:26.471Z,11.13
2019-05-12T07:41:00.631Z,6.73
2019-05-12T07:43:30.180Z,5.27
2019-05-12T07:46:07.151Z,5.00
2019-05-12T07:48:33.427Z,6.90
2019-05-12T07:51:04.208Z,6.53
2019-05-12T07:53:34.297Z,6.37
2019-05-12T07:56:04.306Z,6.70
2019-05-12T07:58:34.060Z,9.18
2019-05-12T08:01:07.739Z,5.93
2019-05-12T08:03:37.329Z,6.10
2019-05-12T08:06:08.266Z,7.23
2019-05-12T08:08:44.154Z,7.57
2019-05-12T08:11:09.861Z,6.30
2019-05-12T08:13:40.913Z,7.27
2019-05-12T08:16:10.428Z,7.70
2019-05-12T08:18:41.160Z,8.33
2019-05-12T08:21:10.521Z,8.30
2019-05-12T08:23:40.367Z,7.13
2019-05-12T08:26:16.265Z,6.80
2019-05-12T08:28:44.200Z,7.20
2019-05-12T08:31:14.142Z,7.15
2019-05-12T08:33:43.809Z,6.83
2019-05-12T08:36:16.351Z,7.85
2019-05-12T08:38:46.127Z,7.90
2019-05-12T08:41:16.368Z,7.80
2019-05-12T08:43:53.135Z,8.07
2019-05-12T08:46:20.050Z,7.55
2019-05-12T08:48:51.504Z,7.87
2019-05-12T08:51:25.027Z,8.00
2019-05-12T08:54:02.293Z,7.10
2019-05-12T08:56:33.109Z,9.70
2019-05-12T08:59:04.329Z,7.93
2019-05-12T09:01:35.427Z,9.48
2019-05-12T09:04:13.131Z,8.93
2019-05-12T09:06:43.485Z,9.60
2019-05-12T09:09:15.796Z,8.03
2019-05-12T09:11:54.056Z,8.37
2019-05-12T09:14:25.169Z,8.57
2019-05-12T09:17:02.766Z,10.00
2019-05-12T09:19:33.219Z,8.57
2019-05-12T09:22:07.201Z,11.83
2019-05-12T09:24:33.889Z,13.60
2019-05-12T09:27:08.822Z,8.43
2019-05-12T09:29:39.603Z,10.13
2019-05-12T09:32:14.576Z,10.07
2019-05-12T09:34:52.607Z,9.28
2019-05-12T09:37:20.612Z,8.58
2019-05-12T09:39:53.821Z,12.60
2019-05-12T09:42:30.013Z,9.80
2019-05-12T09:44:59.960Z,10.17
2019-05-12T09:47:31.199Z,12.00
2019-05-12T09:50:00.536Z,9.53
2019-05-12T09:52:32.960Z,11.23
2019-05-12T09:55:04.254Z,10.17
2019-05-12T09:57:40.543Z,11.67
2019-05-12T10:00:06.969Z,11.00
2019-05-12T10:02:37.480Z,11.27
2019-05-12T10:05:08.897Z,14.47
2019-05-12T10:07:44.371Z,11.23
2019-05-12T10:10:14.157Z,11.20
2019-05-12T10:12:50.302Z,12.73
2019-05-12T10:15:18.580Z,14.00
2019-05-12T10:17:49.575Z,17.10
2019-05-12T10:20:21.564Z,17.73
2019-05-12T10:22:50.037Z,23.87
2019-05-12T10:25:23.204Z,14.53
2019-05-12T10:27:53.145Z,15.70
2019-05-12T10:30:23.450Z,21.57
2019-05-12T10:32:53.178Z,19.63
2019-05-12T10:35:26.261Z,14.33
2019-05-12T10:37:53.807Z,15.90
2019-05-12T10:40:23.646Z,14.40
2019-05-12T10:42:54.227Z,12.58
2019-05-12T10:45:25.921Z,16.07
2019-05-12T10:47:55.823Z,15.63
2019-05-12T10:50:27.748Z,16.53
2019-05-12T10:52:57.521Z,15.95
2019-05-12T10:55:27.029Z,16.55
2019-05-12T10:58:01.477Z,13.97
2019-05-12T11:00:30.963Z,14.15
2019-05-12T11:03:01.518Z,20.93
2019-05-12T11:05:33.643Z,15.88
2019-05-12T11:08:06.386Z,16.83
2019-05-12T11:10:35.318Z,18.37
2019-05-12T11:13:08.438Z,19.17
2019-05-12T11:15:39.606Z,24.57
2019-05-12T11:18:14.279Z,22.80
2019-05-12T11:20:47.653Z,17.53
2019-05-12T11:23:18.192Z,22.73
2019-05-12T11:25:49.476Z,19.00
2019-05-12T11:28:20.384Z,17.17
2019-05-12T11:30:53.275Z,15.77
2019-05-12T11:33:25.134Z,21.53
2019-05-12T11:35:57.817Z,19.57
2019-05-12T11:38:27.122Z,18.17
2019-05-12T11:40:57.984Z,22.27
2019-05-12T11:43:29.867Z,20.77
2019-05-12T11:46:00.274Z,21.63
2019-05-12T11:48:30.321Z,20.23
2019-05-12T11:51:00.736Z,19.70
2019-05-12T11:53:32.865Z,21.93
2019-05-12T11:56:07.475Z,20.00
2019-05-12T11:58:34.196Z,28.67
2019-05-12T12:01:08.250Z,17.67
2019-05-12T12:03:37.055Z,18.67
2019-05-12T12:06:06.816Z,15.63
2019-05-12T12:08:37.418Z,17.00
2019-05-12T12:11:10.438Z,15.53
2019-05-12T12:13:40.225Z,19.25
2019-05-12T12:16:11.408Z,13.83
2019-05-12T12:18:46.703Z,17.23
2019-05-12T12:21:14.213Z,15.63
2019-05-12T12:23:48.738Z,21.10
2019-05-12T12:26:30.310Z,19.42
2019-05-12T12:28:59.185Z,20.60
2019-05-12T12:31:35.758Z,25.00
2019-05-12T12:34:02.268Z,19.03
2019-05-12T12:36:35.609Z,18.63
2019-05-12T12:39:06.601Z,25.07
2019-05-12T12:41:35.989Z,17.50
2019-05-12T12:44:05.730Z,16.80
2019-05-12T12:46:35.237Z,23.67
2019-05-12T12:49:08.569Z,18.80
2019-05-12T12:51:37.097Z,21.50
2019-05-12T12:54:06.495Z,20.07
2019-05-12T12:56:35.962Z,15.63
2019-05-12T12:59:10.168Z,22.60
2019-05-12T13:01:39.369Z,21.87
2019-05-12T13:04:08.846Z,18.53
2019-05-12T13:06:39.085Z,18.33
2019-05-12T13:09:21.991Z,17.63
2019-05-12T13:11:41.507Z,16.97
2019-05-12T13:14:13.339Z,17.23
2019-05-12T13:16:43.711Z,20.10
2019-05-12T13:19:17.078Z,16.53
2019-05-12T13:21:46.576Z,15.50
2019-05-12T13:24:17.372Z,13.53
2019-05-12T13:26:46.857Z,14.33
2019-05-12T13:29:19.008Z,16.57
2019-05-12T13:31:48.577Z,14.53
2019-05-12T13:34:18.806Z,15.85
2019-05-12T13:36:49.389Z,15.13
2019-05-12T13:39:18.908Z,15.80
2019-05-12T13:41:50.279Z,17.33
2019-05-12T13:44:20.335Z,20.87
2019-05-12T13:46:56.997Z,18.10
2019-05-12T13:49:21.622Z,15.53
2019-05-12T13:51:53.717Z,15.33
2019-05-12T13:54:26.134Z,17.10
2019-05-12T13:56:54.361Z,18.90
2019-05-12T13:59:25.540Z,16.70
2019-05-12T14:01:55.185Z,18.80
2019-05-12T14:04:27.681Z,15.20
2019-05-12T14:06:56.348Z,16.53
2019-05-12T14:09:26.139Z,18.90
2019-05-12T14:11:55.537Z,17.20
2019-05-12T14:14:25.001Z,14.73
2019-05-12T14:16:59.439Z,15.00
2019-05-12T14:19:30.386Z,18.20
2019-05-12T14:21:59.713Z,14.43
2019-05-12T14:24:33.267Z,16.10
2019-05-12T14:27:00.842Z,14.97
2019-05-12T14:29:33.419Z,16.70
2019-05-12T14:32:05.273Z,14.30
2019-05-12T14:34:42.883Z,16.77
2019-05-12T14:37:14.028Z,15.83
2019-05-12T14:39:50.422Z,12.28
2019-05-12T14:42:20.121Z,17.13
2019-05-12T14:44:49.883Z,12.13
2019-05-12T14:47:27.917Z,19.27
2019-05-12T14:49:54.251Z,15.17
2019-05-12T14:52:27.278Z,16.03
2019-05-12T14:54:58.125Z,17.77
2019-05-12T14:57:29.310Z,12.33
2019-05-12T14:59:59.513Z,20.67
2019-05-12T15:02:29.596Z,14.78
2019-05-12T15:05:05.661Z,16.93
2019-05-12T15:07:33.703Z,17.50
2019-05-12T15:10:08.446Z,14.03
2019-05-12T15:12:34.152Z,19.60
2019-05-12T15:15:09.179Z,16.97
2019-05-12T15:17:36.413Z,17.23
2019-05-12T15:20:10.560Z,17.87
2019-05-12T15:22:50.928Z,17.93
2019-05-12T15:25:14.599Z,17.12
2019-05-12T15:27:48.209Z,17.32
2019-05-12T15:30:23.308Z,15.08
2019-05-12T15:32:50.797Z,12.73
2019-05-12T15:35:24.105Z,16.00
2019-05-12T15:37:56.870Z,14.87
2019-05-12T15:40:29.530Z,18.60
2019-05-12T15:43:00.441Z,16.40
2019-05-12T15:45:34.322Z,25.30
2019-05-12T15:48:04.296Z,21.63
2019-05-12T15:50:34.291Z,19.80
2019-05-12T15:53:04.313Z,14.10
2019-05-12T15:55:35.469Z,12.17
2019-05-12T15:58:09.009Z,15.57
2019-05-12T16:00:38.728Z,14.67
2019-05-12T16:03:08.404Z,14.37
2019-05-12T16:05:37.796Z,15.73
2019-05-12T16:08:07.660Z,13.38
2019-05-12T16:10:37.436Z,13.80
2019-05-12T16:13:06.836Z,13.57
2019-05-12T16:15:36.583Z,15.00
2019-05-12T16:18:09.844Z,18.98
2019-05-12T16:20:37.778Z,12.40
2019-05-12T16:23:07.600Z,14.67
2019-05-12T16:25:38.688Z,17.20
2019-05-12T16:28:15.563Z,13.27
2019-05-12T16:30:40.408Z,19.53
2019-05-12T16:33:20.457Z,17.50
2019-05-12T16:35:50.561Z,14.10
2019-05-12T16:38:20.487Z,21.45
2019-05-12T16:40:50.235Z,17.77
2019-05-12T16:43:19.800Z,22.80
2019-05-12T16:45:54.461Z,15.37
2019-05-12T16:48:30.429Z,16.43
2019-05-12T16:50:57.646Z,18.27
2019-05-12T16:53:31.290Z,12.33
2019-05-12T16:56:05.834Z,14.00
2019-05-12T16:58:35.521Z,15.83
2019-05-12T17:01:07.620Z,16.85
2019-05-12T17:03:38.813Z,18.90
2019-05-12T17:06:08.833Z,17.60
2019-05-12T17:08:44.829Z,16.40
2019-05-12T17:11:26.466Z,14.98
2019-05-12T17:13:55.608Z,21.07
2019-05-12T17:16:18.389Z,21.65
2019-05-12T17:18:53.342Z,16.30
2019-05-12T17:21:24.645Z,14.50
2019-05-12T17:23:55.286Z,15.80
2019-05-12T17:26:27.032Z,15.00
2019-05-12T17:28:57.485Z,16.10
2019-05-12T17:31:27.586Z,21.43
2019-05-12T17:34:00.203Z,21.95
2019-05-12T17:36:34.515Z,15.77
2019-05-12T17:39:06.622Z,17.13
2019-05-12T17:41:42.628Z,25.33
2019-05-12T17:44:13.409Z,19.95
2019-05-12T17:46:44.176Z,23.23
2019-05-12T17:49:15.773Z,16.83
2019-05-12T17:51:46.594Z,16.53
2019-05-12T17:54:21.645Z,19.80
2019-05-12T17:56:48.730Z,20.97
2019-05-12T17:59:27.573Z,16.95
2019-05-12T18:01:53.737Z,28.73
2019-05-12T18:04:26.486Z,32.43
2019-05-12T18:06:55.979Z,22.70
2019-05-12T18:09:25.361Z,19.90
2019-05-12T18:11:56.389Z,19.27
2019-05-12T18:14:28.630Z,20.03
2019-05-12T18:17:08.168Z,17.53
2019-05-12T18:19:33.749Z,19.50
2019-05-12T18:22:09.124Z,28.20
2019-05-12T18:24:40.878Z,19.75
2019-05-12T18:27:09.556Z,21.93
2019-05-12T18:29:40.713Z,29.47
2019-05-12T18:32:13.623Z,28.97
2019-05-12T18:34:44.582Z,27.10
2019-05-12T18:37:16.735Z,33.30
2019-05-12T18:39:46.249Z,22.82
2019-05-12T18:42:19.452Z,27.30
2019-05-12T18:44:48.920Z,42.13
2019-05-12T18:47:23.439Z,24.80
2019-05-12T18:49:53.817Z,18.57
2019-05-12T18:52:29.160Z,20.50
2019-05-12T18:54:57.328Z,17.80
2019-05-12T18:57:30.569Z,13.68
2019-05-12T19:00:04.208Z,16.27
2019-05-12T19:02:33.453Z,14.83
2019-05-12T19:05:04.450Z,22.07
2019-05-12T19:07:39.732Z,16.97
2019-05-12T19:10:07.703Z,21.17
2019-05-12T19:12:37.120Z,19.25
2019-05-12T19:15:10.263Z,19.60
2019-05-12T19:17:39.446Z,17.00
2019-05-12T19:20:13.408Z,23.63
2019-05-12T19:22:48.216Z,19.03
2019-05-12T19:25:15.312Z,21.37
2019-05-12T19:27:46.996Z,18.77
2019-05-12T19:30:19.217Z,18.27
2019-05-12T19:32:51.814Z,17.55
2019-05-12T19:35:23.927Z,27.37
2019-05-12T19:37:54.817Z,16.13
2019-05-12T19:40:24.462Z,19.17
2019-05-12T19:43:01.966Z,17.03
2019-05-12T19:45:25.163Z,19.53
2019-05-12T19:47:57.554Z,18.27
2019-05-12T19:50:28.255Z,17.30
2019-05-12T19:52:58.725Z,17.97
2019-05-12T19:55:30.599Z,17.60
2019-05-12T19:58:10.783Z,16.27
2019-05-12T20:00:34.609Z,14.30
2019-05-12T20:03:08.559Z,17.37
2019-05-12T20:05:37.080Z,19.90
2019-05-12T20:08:08.378Z,16.27
2019-05-12T20:10:44.856Z,16.97
2019-05-12T20:13:13.698Z,22.53
2019-05-12T20:15:43.835Z,22.33
2019-05-12T20:18:14.817Z,20.73
2019-05-12T20:20:47.013Z,22.90
2019-05-12T20:23:19.604Z,18.35
2019-05-12T20:25:56.022Z,16.83
2019-05-12T20:28:26.615Z,19.10
2019-05-12T20:31:00.926Z,22.63
2019-05-12T20:33:29.727Z,22.37
2019-05-12T20:36:00.555Z,17.40
2019-05-12T20:38:34.437Z,15.83
2019-05-12T20:41:04.838Z,21.37
2019-05-12T20:43:41.301Z,24.47
2019-05-12T20:46:15.829Z,15.97
2019-05-12T20:48:41.037Z,20.80
2019-05-12T20:51:15.461Z,19.87
2019-05-12T20:53:43.628Z,21.60
2019-05-12T20:56:20.012Z,20.20
2019-05-12T20:58:46.498Z,21.83
2019-05-12T21:01:20.234Z,20.92
2019-05-12T21:03:51.006Z,30.27
2019-05-12T21:06:23.620Z,27.43
2019-05-12T21:08:54.293Z,28.30
2019-05-12T21:11:24.973Z,27.93
2019-05-12T21:14:01.055Z,26.97
2019-05-12T21:16:34.313Z,30.88
2019-05-12T21:19:07.529Z,27.37
2019-05-12T21:21:34.070Z,26.00
2019-05-12T21:24:05.033Z,28.93
2019-05-12T21:26:37.935Z,25.40
2019-05-12T21:29:06.376Z,29.87
2019-05-12T21:31:35.786Z,29.47
2019-05-12T21:34:15.114Z,31.30
2019-05-12T21:36:39.668Z,30.47
2019-05-12T21:39:10.376Z,31.27
2019-05-12T21:41:51.910Z,30.60
2019-05-12T21:44:24.528Z,28.87
2019-05-12T21:47:03.771Z,29.20
2019-05-12T21:49:26.527Z,33.20
2019-05-12T21:52:02.869Z,26.67
2019-05-12T21:54:29.567Z,29.95
2019-05-12T21:56:59.014Z,29.40
2019-05-12T21:59:35.370Z,27.10
2019-05-12T22:02:00.540Z,30.10
2019-05-12T22:04:35.274Z,30.62
2019-05-12T22:07:03.975Z,26.43
2019-05-12T22:09:41.459Z,23.13
2019-05-12T22:12:05.638Z,28.87
2019-05-12T22:14:36.649Z,30.57
2019-05-12T22:17:07.752Z,29.50
2019-05-12T22:19:38.161Z,29.40
2019-05-12T22:22:19.532Z,28.57
2019-05-12T22:24:50.256Z,27.87
2019-05-12T22:27:22.869Z,35.77
2019-05-12T22:29:53.475Z,34.85
2019-05-12T22:32:25.417Z,29.33
2019-05-12T22:34:54.584Z,32.47
2019-05-12T22:37:24.048Z,35.03
2019-05-12T22:39:53.575Z,30.80
2019-05-12T22:42:24.571Z,28.20
2019-05-12T22:45:01.469Z,36.97
2019-05-12T22:47:25.628Z,31.63
2019-05-12T22:49:57.087Z,29.30
2019-05-12T22:52:28.105Z,30.75
2019-05-12T22:54:57.560Z,31.07
2019-05-12T22:57:29.171Z,32.23
2019-05-12T23:00:03.827Z,36.27
2019-05-12T23:02:33.778Z,36.80
2019-05-12T23:05:10.174Z,37.40
2019-05-12T23:07:36.053Z,42.57
2019-05-12T23:10:10.989Z,46.43
2019-05-12T23:12:38.466Z,46.27
2019-05-12T23:15:08.665Z,49.63
2019-05-12T23:17:39.028Z,48.42
2019-05-12T23:20:10.365Z,51.60
2019-05-12T23:22:41.109Z,47.07
2019-05-12T23:25:11.426Z,39.53
2019-05-12T23:27:44.199Z,44.50
2019-05-12T23:30:15.903Z,43.80
2019-05-12T23:32:51.397Z,39.40
2019-05-12T23:35:20.826Z,45.42
2019-05-12T23:37:50.314Z,41.30
2019-05-12T23:40:20.020Z,37.83
2019-05-12T23:42:49.468Z,41.63
2019-05-12T23:45:19.076Z,38.60
2019-05-12T23:47:48.588Z,35.27
2019-05-12T23:50:19.125Z,38.33
2019-05-12T23:52:57.655Z,38.43
2019-05-12T23:55:28.684Z,38.47
2019-05-12T23:58:00.582Z,38.13
